My Meet Scores
Saige Knight, Gymnastics and Cheerleading Academy CT - MyMeetScores.com
Top100 | Top Teams | Upcoming Meets | Completed Meets | Latest | Add Scores | Help| Support | Bookmark and Share

Saige Knight, Gymnastics and Cheerleading Academy CT
Personal Bests
LevelVault BarsBeamFloorAA
39.6509.500 9.4509.50037.650
48.8008.700 8.5508.77534.375
58.6508.075 9.1008.55034.200
68.7758.450 9.1009.25034.875
Meet Scores
Date Meet Team Session Level Division Vault Bars Beam Floor AA
2020-02-15 Chelsea Piers Winter Challenge Gymnastics and Cheerleading Academy CT C1 6 Younger 8.600 11 8.450 12T 8.050 15 9.000 7T 34.100 12T
2020-01-31 Friendship Classic 2020 Gymnastics and Cheerleading Academy CT 06 6 Besties 8.550 7 8.000 11 9.075 6T 9.250 4 34.875 9
2020-01-17 Crimson Classic 2020 Gymnastics and Cheerleading Academy CT 1A 6 A 8.775 7 6.800 8 8.725 7 8.300 8 32.600 8
2020-01-10 Little Boston Invitational Gymnastics and Cheerleading Academy CT B03 6 INT 8.600 10T 7.700 12 8.975 7 9.250 3T 34.525 9
2019-12-06 Rhode Island Invitational Gymnastics and Cheerleading Academy CT SU3 6 child 8.500 11 8.200 8 8.950 6 9.000 9T 34.650 9
2019-11-09 2019 PHS Turkey Tumble Gymnastics and Cheerleading Academy CT 3 6 Jr A 8.550 3 7.850 8 9.100 3 8.650 7T 34.150 7
2019-02-01 State Level 4&5 Gymnastics and Cheerleading Academy CT 6 5 10 Yrs 8.650 34T 8.075 34 9.075 9T 8.400 32 34.200 24
2019-01-25 Kinetic Kids Invitational 2019 Gymnastics and Cheerleading Academy CT 2 5 Younger 8.650 7T 8.000 6 9.000 2 8.225 10 33.875 5T
2019-01-18 DGS Northeast Invite Gymnastics and Cheerleading Academy CT 5A 5 Ch A 8.600 7 7.850 5 8.950 3 8.350 6 33.750 4T
2019-01-11 2019 New Years Blast Gymnastics and Cheerleading Academy CT 3 5 Junior 8.250 12 7.500 9 9.100 4 8.425 9 33.275 9
2018-11-30 Rhode Island Invitational Gymnastics and Cheerleading Academy CT SU3 5 Child 8.250 10 7.500 9* 8.500 7* 8.550 6 32.800 9T
2018-11-17 2018 Connecticut Judge's Cup Gymnastics and Cheerleading Academy CT 6 4 10 yrs. 8.800 20T 8.700 12T 8.100 45T 8.775 30 34.375 19
2018-11-10 2018 Turkey Tumble Gymnastics and Cheerleading Academy CT 2 4 Jr C 8.800 8 8.700 7 8.550 9 8.050 8 34.100 8
2018-02-17 2/17,18/2018 CT Inhouse Valentine Invt Gymnastics and Cheerleading Academy CT 1 3 Jr B 9.050 8T 9.500 3 8.350 4T 8.550 8 35.450 6
2018-01-26 2018 American Invitational Gymnastics and Cheerleading Academy CT 11B 3 Junior 9.650 3T 9.200 6T 9.300 1 9.500 3 37.650 2
2018-01-19 Kinetic Kids Invitational Gymnastics and Cheerleading Academy CT 1 3 Sr A 9.350 2 9.100 9T 9.450 1 9.350 2 37.250 1
2017-11-30 Rhode Island Invitational Gymnastics and Cheerleading Academy CT WS4 3 junior 8.750 2 8.925 2 9.050 4 9.025 5 35.750 4
2017-11-10 2017 Phs Turkey Tumble Gymnastics and Cheerleading Academy CT 4 3 Jr C 8.850 6T 9.050 2T 9.275 3T 8.400 9 35.575 5
2017-03-25 2017 Connecticut Level 3 State Cup Gymnastics and Cheerleading Academy CT 1 3 N/A 9.000 36T 8.500 28T 9.250 14T 8.650 26T 35.400 24
2017-01-27 24th Annual American Invitational Gymnastics and Cheerleading Academy CT 5A 3 Child 9.075 9T 9.275 2 8.300 16 9.125 3 35.775 3T
2016-12-02 Rhode Island Invitational Gymnastics and Cheerleading Academy CT WS1 3 Intermedia 9.475 1 7.700 9T 8.100 8 8.550 7 33.825 6
2016-11-18 2016 Muriel Grossfeld Invitational Gymnastics and Cheerleading Academy CT 5 3 Jr A 8.700 6T 6.600 13 8.450 3 8.600 5 32.350 9T
Get your scores on
a t-shirt, pin, or hoodie

www.lazysuits.com